sensor_id;sensor_type;location;lat;lon;timestamp;P1;durP1;ratioP1;P2;durP2;ratioP2
75926;SDS011;64605;48.296;16.416;2023-06-22T00:02:08;15.00;;;9.90;;
75926;SDS011;64605;48.296;16.416;2023-06-22T00:04:34;18.15;;;9.18;;
75926;SDS011;64605;48.296;16.416;2023-06-22T00:06:59;14.88;;;10.45;;
75926;SDS011;64605;48.296;16.416;2023-06-22T00:09:25;15.95;;;10.85;;
75926;SDS011;64605;48.296;16.416;2023-06-22T00:11:50;18.45;;;10.20;;
75926;SDS011;64605;48.296;16.416;2023-06-22T00:14:16;18.27;;;10.05;;
75926;SDS011;64605;48.296;16.416;2023-06-22T00:16:42;18.23;;;10.30;;
75926;SDS011;64605;48.296;16.416;2023-06-22T00:19:07;15.68;;;10.23;;
75926;SDS011;64605;48.296;16.416;2023-06-22T00:21:36;17.00;;;10.60;;
75926;SDS011;64605;48.296;16.416;2023-06-22T00:24:03;23.00;;;11.13;;
75926;SDS011;64605;48.296;16.416;2023-06-22T00:26:29;22.17;;;11.50;;
75926;SDS011;64605;48.296;16.416;2023-06-22T00:28:55;18.63;;;10.52;;
75926;SDS011;64605;48.296;16.416;2023-06-22T00:31:20;15.15;;;10.02;;
75926;SDS011;64605;48.296;16.416;2023-06-22T00:33:46;14.45;;;8.48;;
75926;SDS011;64605;48.296;16.416;2023-06-22T00:36:12;15.07;;;8.23;;
75926;SDS011;64605;48.296;16.416;2023-06-22T00:38:41;13.85;;;8.00;;
75926;SDS011;64605;48.296;16.416;2023-06-22T00:41:07;16.98;;;7.13;;
75926;SDS011;64605;48.296;16.416;2023-06-22T00:43:32;15.57;;;8.32;;
75926;SDS011;64605;48.296;16.416;2023-06-22T00:45:58;12.70;;;7.22;;
75926;SDS011;64605;48.296;16.416;2023-06-22T00:48:24;13.05;;;8.43;;
75926;SDS011;64605;48.296;16.416;2023-06-22T00:50:50;9.13;;;6.82;;
75926;SDS011;64605;48.296;16.416;2023-06-22T00:53:18;16.00;;;7.72;;
75926;SDS011;64605;48.296;16.416;2023-06-22T00:55:45;12.80;;;7.60;;
75926;SDS011;64605;48.296;16.416;2023-06-22T00:58:12;12.27;;;7.05;;
75926;SDS011;64605;48.296;16.416;2023-06-22T01:00:39;15.52;;;7.15;;
75926;SDS011;64605;48.296;16.416;2023-06-22T01:03:06;15.45;;;8.48;;
75926;SDS011;64605;48.296;16.416;2023-06-22T01:05:35;16.38;;;8.52;;
75926;SDS011;64605;48.296;16.416;2023-06-22T01:11:12;11.70;;;7.18;;
75926;SDS011;64605;48.296;16.416;2023-06-22T01:16:31;14.88;;;8.00;;
75926;SDS011;64605;48.296;16.416;2023-06-22T01:19:00;13.15;;;8.27;;
75926;SDS011;64605;48.296;16.416;2023-06-22T01:21:30;14.32;;;7.82;;
75926;SDS011;64605;48.296;16.416;2023-06-22T01:29:18;14.07;;;9.23;;
75926;SDS011;64605;48.296;16.416;2023-06-22T01:31:45;18.02;;;10.13;;
75926;SDS011;64605;48.296;16.416;2023-06-22T01:34:13;16.60;;;9.50;;
75926;SDS011;64605;48.296;16.416;2023-06-22T01:36:40;18.08;;;9.77;;
75926;SDS011;64605;48.296;16.416;2023-06-22T01:39:06;16.00;;;10.13;;
75926;SDS011;64605;48.296;16.416;2023-06-22T01:41:34;24.45;;;10.95;;
75926;SDS011;64605;48.296;16.416;2023-06-22T01:44:02;18.17;;;11.23;;
75926;SDS011;64605;48.296;16.416;2023-06-22T01:46:34;19.73;;;11.18;;
75926;SDS011;64605;48.296;16.416;2023-06-22T01:49:02;19.73;;;11.07;;
75926;SDS011;64605;48.296;16.416;2023-06-22T01:51:28;20.95;;;11.05;;
75926;SDS011;64605;48.296;16.416;2023-06-22T01:53:55;13.60;;;9.80;;
75926;SDS011;64605;48.296;16.416;2023-06-22T01:56:20;20.60;;;10.23;;
75926;SDS011;64605;48.296;16.416;2023-06-22T01:58:50;12.10;;;9.23;;
75926;SDS011;64605;48.296;16.416;2023-06-22T02:01:23;18.42;;;10.85;;
75926;SDS011;64605;48.296;16.416;2023-06-22T02:04:03;15.52;;;10.05;;
75926;SDS011;64605;48.296;16.416;2023-06-22T02:06:34;19.00;;;10.48;;
75926;SDS011;64605;48.296;16.416;2023-06-22T02:09:05;17.23;;;9.90;;
75926;SDS011;64605;48.296;16.416;2023-06-22T02:11:35;16.30;;;9.67;;
75926;SDS011;64605;48.296;16.416;2023-06-22T02:14:02;16.25;;;10.43;;
75926;SDS011;64605;48.296;16.416;2023-06-22T02:16:28;14.60;;;9.40;;
75926;SDS011;64605;48.296;16.416;2023-06-22T02:18:57;15.43;;;9.52;;
75926;SDS011;64605;48.296;16.416;2023-06-22T02:21:28;18.75;;;8.70;;
75926;SDS011;64605;48.296;16.416;2023-06-22T02:23:54;12.52;;;8.73;;
75926;SDS011;64605;48.296;16.416;2023-06-22T02:26:19;14.07;;;8.27;;
75926;SDS011;64605;48.296;16.416;2023-06-22T02:28:45;13.10;;;8.35;;
75926;SDS011;64605;48.296;16.416;2023-06-22T02:31:11;16.55;;;9.18;;
75926;SDS011;64605;48.296;16.416;2023-06-22T02:33:37;20.35;;;11.02;;
75926;SDS011;64605;48.296;16.416;2023-06-22T02:36:02;23.13;;;12.18;;
75926;SDS011;64605;48.296;16.416;2023-06-22T02:38:30;25.27;;;12.73;;
75926;SDS011;64605;48.296;16.416;2023-06-22T02:40:58;19.33;;;11.52;;
75926;SDS011;64605;48.296;16.416;2023-06-22T02:43:24;19.13;;;12.85;;
75926;SDS011;64605;48.296;16.416;2023-06-22T02:45:49;19.30;;;11.80;;
75926;SDS011;64605;48.296;16.416;2023-06-22T02:48:15;25.70;;;12.75;;
75926;SDS011;64605;48.296;16.416;2023-06-22T02:50:41;21.05;;;12.40;;
75926;SDS011;64605;48.296;16.416;2023-06-22T02:53:06;18.55;;;13.15;;
75926;SDS011;64605;48.296;16.416;2023-06-22T02:55:32;21.77;;;13.23;;
75926;SDS011;64605;48.296;16.416;2023-06-22T02:57:57;21.73;;;13.68;;
75926;SDS011;64605;48.296;16.416;2023-06-22T03:00:24;19.17;;;11.43;;
75926;SDS011;64605;48.296;16.416;2023-06-22T03:02:55;19.45;;;10.88;;
75926;SDS011;64605;48.296;16.416;2023-06-22T03:05:21;17.08;;;9.82;;
75926;SDS011;64605;48.296;16.416;2023-06-22T03:07:46;16.20;;;9.82;;
75926;SDS011;64605;48.296;16.416;2023-06-22T03:10:13;16.73;;;10.50;;
75926;SDS011;64605;48.296;16.416;2023-06-22T03:12:40;17.23;;;10.02;;
75926;SDS011;64605;48.296;16.416;2023-06-22T03:15:06;16.10;;;10.23;;
75926;SDS011;64605;48.296;16.416;2023-06-22T03:17:36;14.20;;;10.27;;
75926;SDS011;64605;48.296;16.416;2023-06-22T03:20:03;15.95;;;9.93;;
75926;SDS011;64605;48.296;16.416;2023-06-22T03:22:34;15.75;;;10.07;;
75926;SDS011;64605;48.296;16.416;2023-06-22T03:25:01;19.60;;;10.55;;
75926;SDS011;64605;48.296;16.416;2023-06-22T03:27:26;20.90;;;10.40;;
75926;SDS011;64605;48.296;16.416;2023-06-22T03:29:52;15.77;;;10.43;;
75926;SDS011;64605;48.296;16.416;2023-06-22T03:32:18;16.23;;;11.40;;
75926;SDS011;64605;48.296;16.416;2023-06-22T03:34:43;15.25;;;10.90;;
75926;SDS011;64605;48.296;16.416;2023-06-22T03:37:12;16.15;;;10.40;;
75926;SDS011;64605;48.296;16.416;2023-06-22T03:39:39;18.35;;;10.10;;
75926;SDS011;64605;48.296;16.416;2023-06-22T03:42:05;19.15;;;11.35;;
75926;SDS011;64605;48.296;16.416;2023-06-22T03:44:31;16.48;;;11.52;;
75926;SDS011;64605;48.296;16.416;2023-06-22T03:46:56;18.73;;;11.65;;
75926;SDS011;64605;48.296;16.416;2023-06-22T03:49:22;20.73;;;12.55;;
75926;SDS011;64605;48.296;16.416;2023-06-22T03:51:48;21.65;;;13.43;;
75926;SDS011;64605;48.296;16.416;2023-06-22T03:54:14;19.80;;;12.63;;
75926;SDS011;64605;48.296;16.416;2023-06-22T03:56:39;24.15;;;14.25;;
75926;SDS011;64605;48.296;16.416;2023-06-22T03:59:05;22.02;;;13.73;;
75926;SDS011;64605;48.296;16.416;2023-06-22T04:01:30;20.30;;;12.93;;
75926;SDS011;64605;48.296;16.416;2023-06-22T04:03:56;20.63;;;11.77;;
75926;SDS011;64605;48.296;16.416;2023-06-22T04:06:22;18.00;;;11.45;;
75926;SDS011;64605;48.296;16.416;2023-06-22T04:08:47;17.92;;;10.73;;
75926;SDS011;64605;48.296;16.416;2023-06-22T04:11:16;22.83;;;10.15;;
75926;SDS011;64605;48.296;16.416;2023-06-22T04:13:43;14.75;;;8.52;;
75926;SDS011;64605;48.296;16.416;2023-06-22T04:16:09;14.20;;;9.23;;
75926;SDS011;64605;48.296;16.416;2023-06-22T04:18:34;14.75;;;8.80;;
75926;SDS011;64605;48.296;16.416;2023-06-22T04:21:01;13.70;;;8.43;;
75926;SDS011;64605;48.296;16.416;2023-06-22T04:23:27;15.68;;;8.63;;
75926;SDS011;64605;48.296;16.416;2023-06-22T04:25:52;14.52;;;9.45;;
75926;SDS011;64605;48.296;16.416;2023-06-22T04:28:18;14.60;;;9.48;;
75926;SDS011;64605;48.296;16.416;2023-06-22T04:30:44;14.18;;;9.48;;
75926;SDS011;64605;48.296;16.416;2023-06-22T04:33:15;14.30;;;8.18;;
75926;SDS011;64605;48.296;16.416;2023-06-22T04:35:41;16.08;;;8.85;;
75926;SDS011;64605;48.296;16.416;2023-06-22T04:38:09;20.38;;;9.13;;
75926;SDS011;64605;48.296;16.416;2023-06-22T04:40:38;17.63;;;10.32;;
75926;SDS011;64605;48.296;16.416;2023-06-22T04:43:04;16.25;;;9.60;;
75926;SDS011;64605;48.296;16.416;2023-06-22T04:45:31;22.48;;;10.73;;
75926;SDS011;64605;48.296;16.416;2023-06-22T04:47:57;15.23;;;10.02;;
75926;SDS011;64605;48.296;16.416;2023-06-22T04:50:23;15.52;;;9.27;;
75926;SDS011;64605;48.296;16.416;2023-06-22T04:52:49;17.83;;;10.15;;
75926;SDS011;64605;48.296;16.416;2023-06-22T04:55:15;20.65;;;9.95;;
75926;SDS011;64605;48.296;16.416;2023-06-22T04:57:45;16.67;;;9.23;;
75926;SDS011;64605;48.296;16.416;2023-06-22T05:00:14;18.02;;;8.98;;
75926;SDS011;64605;48.296;16.416;2023-06-22T05:02:45;18.05;;;9.93;;
75926;SDS011;64605;48.296;16.416;2023-06-22T05:05:11;17.42;;;9.73;;
75926;SDS011;64605;48.296;16.416;2023-06-22T05:07:45;21.45;;;11.07;;
75926;SDS011;64605;48.296;16.416;2023-06-22T05:10:13;17.02;;;8.40;;
75926;SDS011;64605;48.296;16.416;2023-06-22T05:12:39;16.30;;;8.88;;
75926;SDS011;64605;48.296;16.416;2023-06-22T05:15:06;18.60;;;9.30;;
75926;SDS011;64605;48.296;16.416;2023-06-22T05:17:34;14.65;;;8.43;;
75926;SDS011;64605;48.296;16.416;2023-06-22T05:20:00;13.95;;;8.07;;
75926;SDS011;64605;48.296;16.416;2023-06-22T05:22:27;15.52;;;7.88;;
75926;SDS011;64605;48.296;16.416;2023-06-22T05:24:52;15.48;;;7.72;;
75926;SDS011;64605;48.296;16.416;2023-06-22T05:27:19;10.70;;;6.57;;
75926;SDS011;64605;48.296;16.416;2023-06-22T05:29:45;15.20;;;7.35;;
75926;SDS011;64605;48.296;16.416;2023-06-22T05:32:11;13.32;;;7.28;;
75926;SDS011;64605;48.296;16.416;2023-06-22T05:34:37;12.45;;;7.00;;
75926;SDS011;64605;48.296;16.416;2023-06-22T05:37:03;13.27;;;6.50;;
75926;SDS011;64605;48.296;16.416;2023-06-22T05:39:29;17.98;;;6.65;;
75926;SDS011;64605;48.296;16.416;2023-06-22T05:41:56;12.65;;;6.43;;
75926;SDS011;64605;48.296;16.416;2023-06-22T05:44:22;11.73;;;6.05;;
75926;SDS011;64605;48.296;16.416;2023-06-22T05:46:48;19.02;;;7.85;;
75926;SDS011;64605;48.296;16.416;2023-06-22T05:49:13;14.88;;;7.20;;
75926;SDS011;64605;48.296;16.416;2023-06-22T05:51:40;14.18;;;7.53;;
75926;SDS011;64605;48.296;16.416;2023-06-22T05:54:06;14.82;;;7.35;;
75926;SDS011;64605;48.296;16.416;2023-06-22T05:56:33;12.23;;;6.55;;
75926;SDS011;64605;48.296;16.416;2023-06-22T05:58:58;12.68;;;7.30;;
75926;SDS011;64605;48.296;16.416;2023-06-22T06:01:24;22.45;;;11.02;;
75926;SDS011;64605;48.296;16.416;2023-06-22T06:03:51;18.05;;;10.07;;
75926;SDS011;64605;48.296;16.416;2023-06-22T06:06:18;21.08;;;12.95;;
75926;SDS011;64605;48.296;16.416;2023-06-22T06:08:46;22.73;;;12.32;;
75926;SDS011;64605;48.296;16.416;2023-06-22T06:11:11;19.67;;;11.88;;
75926;SDS011;64605;48.296;16.416;2023-06-22T06:13:37;20.73;;;12.13;;
75926;SDS011;64605;48.296;16.416;2023-06-22T06:16:03;24.65;;;13.02;;
75926;SDS011;64605;48.296;16.416;2023-06-22T06:18:28;20.98;;;11.38;;
75926;SDS011;64605;48.296;16.416;2023-06-22T06:20:54;29.83;;;12.80;;
75926;SDS011;64605;48.296;16.416;2023-06-22T06:23:20;20.80;;;11.75;;
75926;SDS011;64605;48.296;16.416;2023-06-22T06:25:45;24.30;;;11.25;;
75926;SDS011;64605;48.296;16.416;2023-06-22T06:28:11;19.50;;;11.75;;
75926;SDS011;64605;48.296;16.416;2023-06-22T06:30:37;21.48;;;10.40;;
75926;SDS011;64605;48.296;16.416;2023-06-22T06:33:03;19.30;;;12.30;;
75926;SDS011;64605;48.296;16.416;2023-06-22T06:35:33;22.67;;;12.02;;
75926;SDS011;64605;48.296;16.416;2023-06-22T06:37:59;23.02;;;11.32;;
75926;SDS011;64605;48.296;16.416;2023-06-22T06:40:25;25.10;;;11.15;;
75926;SDS011;64605;48.296;16.416;2023-06-22T06:42:51;21.52;;;10.90;;
75926;SDS011;64605;48.296;16.416;2023-06-22T06:45:23;23.98;;;10.40;;
75926;SDS011;64605;48.296;16.416;2023-06-22T06:47:49;18.55;;;9.75;;
75926;SDS011;64605;48.296;16.416;2023-06-22T06:50:15;37.58;;;11.15;;
75926;SDS011;64605;48.296;16.416;2023-06-22T06:52:41;26.15;;;10.88;;
75926;SDS011;64605;48.296;16.416;2023-06-22T06:55:08;22.08;;;10.75;;
75926;SDS011;64605;48.296;16.416;2023-06-22T06:57:37;17.13;;;9.77;;
75926;SDS011;64605;48.296;16.416;2023-06-22T07:00:06;16.92;;;10.07;;
75926;SDS011;64605;48.296;16.416;2023-06-22T07:02:38;22.23;;;11.27;;
75926;SDS011;64605;48.296;16.416;2023-06-22T07:05:07;24.77;;;10.30;;
75926;SDS011;64605;48.296;16.416;2023-06-22T07:07:34;22.73;;;11.15;;
75926;SDS011;64605;48.296;16.416;2023-06-22T07:10:00;20.40;;;10.70;;
75926;SDS011;64605;48.296;16.416;2023-06-22T07:12:26;17.35;;;11.38;;
75926;SDS011;64605;48.296;16.416;2023-06-22T07:14:52;18.80;;;10.98;;
75926;SDS011;64605;48.296;16.416;2023-06-22T07:17:18;17.85;;;10.50;;
75926;SDS011;64605;48.296;16.416;2023-06-22T07:19:43;19.35;;;10.93;;
75926;SDS011;64605;48.296;16.416;2023-06-22T07:22:10;19.75;;;10.38;;
75926;SDS011;64605;48.296;16.416;2023-06-22T07:24:36;22.60;;;11.68;;
75926;SDS011;64605;48.296;16.416;2023-06-22T07:27:02;19.73;;;10.55;;
75926;SDS011;64605;48.296;16.416;2023-06-22T07:29:28;18.88;;;10.18;;
75926;SDS011;64605;48.296;16.416;2023-06-22T07:31:54;16.17;;;10.00;;
75926;SDS011;64605;48.296;16.416;2023-06-22T07:34:21;21.30;;;9.95;;
75926;SDS011;64605;48.296;16.416;2023-06-22T07:36:47;18.98;;;8.65;;
75926;SDS011;64605;48.296;16.416;2023-06-22T07:39:13;16.77;;;8.50;;
75926;SDS011;64605;48.296;16.416;2023-06-22T07:41:39;15.10;;;8.70;;
75926;SDS011;64605;48.296;16.416;2023-06-22T07:44:08;15.20;;;8.10;;
75926;SDS011;64605;48.296;16.416;2023-06-22T07:46:34;18.23;;;8.70;;
75926;SDS011;64605;48.296;16.416;2023-06-22T07:48:59;12.77;;;8.02;;
75926;SDS011;64605;48.296;16.416;2023-06-22T07:51:26;16.05;;;7.60;;
75926;SDS011;64605;48.296;16.416;2023-06-22T07:53:52;14.82;;;7.53;;
75926;SDS011;64605;48.296;16.416;2023-06-22T07:56:17;15.23;;;7.97;;
75926;SDS011;64605;48.296;16.416;2023-06-22T07:58:46;13.32;;;7.85;;
75926;SDS011;64605;48.296;16.416;2023-06-22T08:01:15;22.33;;;7.32;;
75926;SDS011;64605;48.296;16.416;2023-06-22T08:03:41;14.98;;;7.30;;
75926;SDS011;64605;48.296;16.416;2023-06-22T08:06:08;16.05;;;7.20;;
75926;SDS011;64605;48.296;16.416;2023-06-22T08:08:34;21.35;;;7.75;;
75926;SDS011;64605;48.296;16.416;2023-06-22T08:11:03;13.00;;;6.47;;
75926;SDS011;64605;48.296;16.416;2023-06-22T08:13:29;14.73;;;8.07;;
75926;SDS011;64605;48.296;16.416;2023-06-22T08:15:54;13.65;;;7.47;;
75926;SDS011;64605;48.296;16.416;2023-06-22T08:18:20;17.17;;;7.70;;
75926;SDS011;64605;48.296;16.416;2023-06-22T08:20:46;18.48;;;7.53;;
75926;SDS011;64605;48.296;16.416;2023-06-22T08:23:11;19.88;;;7.45;;
75926;SDS011;64605;48.296;16.416;2023-06-22T08:25:37;19.33;;;7.45;;
75926;SDS011;64605;48.296;16.416;2023-06-22T08:28:03;19.40;;;7.53;;
75926;SDS011;64605;48.296;16.416;2023-06-22T08:30:29;15.10;;;7.63;;
75926;SDS011;64605;48.296;16.416;2023-06-22T08:32:55;16.88;;;8.73;;
75926;SDS011;64605;48.296;16.416;2023-06-22T08:35:23;14.75;;;8.02;;
75926;SDS011;64605;48.296;16.416;2023-06-22T08:37:50;16.08;;;8.20;;
75926;SDS011;64605;48.296;16.416;2023-06-22T08:40:17;14.82;;;8.20;;
75926;SDS011;64605;48.296;16.416;2023-06-22T08:42:44;15.88;;;7.55;;
75926;SDS011;64605;48.296;16.416;2023-06-22T08:45:11;12.88;;;7.88;;
75926;SDS011;64605;48.296;16.416;2023-06-22T08:47:37;19.42;;;8.80;;
75926;SDS011;64605;48.296;16.416;2023-06-22T08:50:04;14.00;;;8.10;;
75926;SDS011;64605;48.296;16.416;2023-06-22T08:52:31;39.50;;;11.90;;
75926;SDS011;64605;48.296;16.416;2023-06-22T08:54:57;15.80;;;8.10;;
75926;SDS011;64605;48.296;16.416;2023-06-22T08:57:26;16.20;;;8.07;;
75926;SDS011;64605;48.296;16.416;2023-06-22T08:59:52;20.50;;;9.13;;
75926;SDS011;64605;48.296;16.416;2023-06-22T09:02:18;23.02;;;8.35;;
75926;SDS011;64605;48.296;16.416;2023-06-22T09:04:45;41.97;;;9.43;;
75926;SDS011;64605;48.296;16.416;2023-06-22T09:07:11;13.07;;;8.48;;
75926;SDS011;64605;48.296;16.416;2023-06-22T09:09:37;15.45;;;7.60;;
75926;SDS011;64605;48.296;16.416;2023-06-22T09:12:02;13.15;;;7.80;;
75926;SDS011;64605;48.296;16.416;2023-06-22T09:14:29;19.10;;;8.85;;
75926;SDS011;64605;48.296;16.416;2023-06-22T09:16:54;14.48;;;7.65;;
75926;SDS011;64605;48.296;16.416;2023-06-22T09:19:20;9.15;;;7.50;;
75926;SDS011;64605;48.296;16.416;2023-06-22T09:21:45;13.02;;;7.10;;
75926;SDS011;64605;48.296;16.416;2023-06-22T09:24:11;19.95;;;7.93;;
75926;SDS011;64605;48.296;16.416;2023-06-22T09:26:37;18.15;;;7.75;;
75926;SDS011;64605;48.296;16.416;2023-06-22T09:29:04;12.70;;;6.93;;
75926;SDS011;64605;48.296;16.416;2023-06-22T09:31:30;14.98;;;6.78;;
75926;SDS011;64605;48.296;16.416;2023-06-22T09:33:56;17.73;;;7.38;;
75926;SDS011;64605;48.296;16.416;2023-06-22T09:36:22;13.57;;;7.68;;
75926;SDS011;64605;48.296;16.416;2023-06-22T09:38:48;11.23;;;7.05;;
75926;SDS011;64605;48.296;16.416;2023-06-22T09:41:20;14.52;;;7.88;;
75926;SDS011;64605;48.296;16.416;2023-06-22T09:43:45;12.60;;;7.07;;
75926;SDS011;64605;48.296;16.416;2023-06-22T09:46:11;13.35;;;6.60;;
75926;SDS011;64605;48.296;16.416;2023-06-22T09:48:37;13.73;;;6.30;;
75926;SDS011;64605;48.296;16.416;2023-06-22T09:51:02;12.90;;;6.60;;
75926;SDS011;64605;48.296;16.416;2023-06-22T09:53:28;14.32;;;7.10;;
75926;SDS011;64605;48.296;16.416;2023-06-22T09:55:54;12.60;;;6.75;;
75926;SDS011;64605;48.296;16.416;2023-06-22T09:58:19;10.95;;;6.82;;
75926;SDS011;64605;48.296;16.416;2023-06-22T10:00:45;11.95;;;6.20;;
75926;SDS011;64605;48.296;16.416;2023-06-22T10:03:11;10.15;;;6.20;;
75926;SDS011;64605;48.296;16.416;2023-06-22T10:05:36;21.52;;;7.47;;
75926;SDS011;64605;48.296;16.416;2023-06-22T10:08:02;15.55;;;6.57;;
75926;SDS011;64605;48.296;16.416;2023-06-22T10:10:28;17.00;;;7.03;;
75926;SDS011;64605;48.296;16.416;2023-06-22T10:12:57;12.63;;;6.72;;
75926;SDS011;64605;48.296;16.416;2023-06-22T10:15:27;11.23;;;6.80;;
75926;SDS011;64605;48.296;16.416;2023-06-22T10:17:53;15.50;;;7.45;;
75926;SDS011;64605;48.296;16.416;2023-06-22T10:20:18;13.13;;;8.52;;
75926;SDS011;64605;48.296;16.416;2023-06-22T10:22:45;9.95;;;6.28;;
75926;SDS011;64605;48.296;16.416;2023-06-22T10:25:12;12.45;;;7.00;;
75926;SDS011;64605;48.296;16.416;2023-06-22T10:27:38;9.35;;;5.97;;
75926;SDS011;64605;48.296;16.416;2023-06-22T10:30:07;8.48;;;5.72;;
75926;SDS011;64605;48.296;16.416;2023-06-22T10:32:34;10.20;;;6.97;;
75926;SDS011;64605;48.296;16.416;2023-06-22T10:34:59;11.13;;;6.50;;
75926;SDS011;64605;48.296;16.416;2023-06-22T10:37:25;14.80;;;6.07;;
75926;SDS011;64605;48.296;16.416;2023-06-22T10:39:51;10.25;;;6.40;;
75926;SDS011;64605;48.296;16.416;2023-06-22T10:42:16;12.15;;;7.45;;
75926;SDS011;64605;48.296;16.416;2023-06-22T10:44:42;12.85;;;6.35;;
75926;SDS011;64605;48.296;16.416;2023-06-22T10:47:09;10.52;;;6.22;;
75926;SDS011;64605;48.296;16.416;2023-06-22T10:49:37;10.85;;;6.35;;
75926;SDS011;64605;48.296;16.416;2023-06-22T10:52:03;10.15;;;5.97;;
75926;SDS011;64605;48.296;16.416;2023-06-22T10:54:29;13.95;;;6.32;;
75926;SDS011;64605;48.296;16.416;2023-06-22T10:56:55;10.10;;;5.65;;
75926;SDS011;64605;48.296;16.416;2023-06-22T10:59:21;12.00;;;6.13;;
75926;SDS011;64605;48.296;16.416;2023-06-22T11:01:48;10.40;;;5.53;;
75926;SDS011;64605;48.296;16.416;2023-06-22T11:04:14;13.43;;;6.13;;
75926;SDS011;64605;48.296;16.416;2023-06-22T11:06:40;14.80;;;6.50;;
75926;SDS011;64605;48.296;16.416;2023-06-22T11:09:05;11.07;;;5.90;;
75926;SDS011;64605;48.296;16.416;2023-06-22T11:11:31;9.93;;;5.22;;
75926;SDS011;64605;48.296;16.416;2023-06-22T11:13:56;14.27;;;5.43;;
75926;SDS011;64605;48.296;16.416;2023-06-22T11:16:22;12.68;;;5.22;;
75926;SDS011;64605;48.296;16.416;2023-06-22T11:18:48;7.80;;;5.00;;
75926;SDS011;64605;48.296;16.416;2023-06-22T11:21:13;11.63;;;4.75;;
75926;SDS011;64605;48.296;16.416;2023-06-22T11:23:39;14.45;;;5.43;;
75926;SDS011;64605;48.296;16.416;2023-06-22T11:26:06;13.38;;;5.68;;
75926;SDS011;64605;48.296;16.416;2023-06-22T11:28:32;12.70;;;5.85;;
75926;SDS011;64605;48.296;16.416;2023-06-22T11:30:58;13.13;;;5.82;;
75926;SDS011;64605;48.296;16.416;2023-06-22T11:33:24;13.90;;;6.60;;
75926;SDS011;64605;48.296;16.416;2023-06-22T11:35:49;10.73;;;7.30;;
75926;SDS011;64605;48.296;16.416;2023-06-22T11:38:15;13.75;;;7.18;;
75926;SDS011;64605;48.296;16.416;2023-06-22T11:40:40;12.75;;;7.88;;
75926;SDS011;64605;48.296;16.416;2023-06-22T11:43:06;16.88;;;7.82;;
75926;SDS011;64605;48.296;16.416;2023-06-22T11:45:32;16.90;;;7.75;;
75926;SDS011;64605;48.296;16.416;2023-06-22T11:47:57;14.02;;;7.78;;
75926;SDS011;64605;48.296;16.416;2023-06-22T11:50:23;16.20;;;7.97;;
75926;SDS011;64605;48.296;16.416;2023-06-22T11:52:49;14.43;;;7.53;;
75926;SDS011;64605;48.296;16.416;2023-06-22T11:55:14;8.70;;;6.22;;
75926;SDS011;64605;48.296;16.416;2023-06-22T11:57:52;12.90;;;6.80;;
75926;SDS011;64605;48.296;16.416;2023-06-22T12:00:19;13.10;;;7.10;;
75926;SDS011;64605;48.296;16.416;2023-06-22T12:02:45;11.52;;;7.53;;
75926;SDS011;64605;48.296;16.416;2023-06-22T12:05:11;13.38;;;7.18;;
75926;SDS011;64605;48.296;16.416;2023-06-22T12:07:37;14.90;;;7.18;;
75926;SDS011;64605;48.296;16.416;2023-06-22T12:10:03;14.98;;;7.18;;
75926;SDS011;64605;48.296;16.416;2023-06-22T12:12:29;12.88;;;6.50;;
75926;SDS011;64605;48.296;16.416;2023-06-22T12:14:54;11.90;;;6.57;;
75926;SDS011;64605;48.296;16.416;2023-06-22T12:17:20;13.82;;;6.32;;
75926;SDS011;64605;48.296;16.416;2023-06-22T12:19:46;16.40;;;6.15;;
75926;SDS011;64605;48.296;16.416;2023-06-22T12:22:11;13.10;;;6.20;;
75926;SDS011;64605;48.296;16.416;2023-06-22T12:24:37;11.70;;;6.53;;
75926;SDS011;64605;48.296;16.416;2023-06-22T12:27:03;11.70;;;6.40;;
75926;SDS011;64605;48.296;16.416;2023-06-22T12:29:29;12.02;;;6.53;;
75926;SDS011;64605;48.296;16.416;2023-06-22T12:31:54;11.18;;;6.30;;
75926;SDS011;64605;48.296;16.416;2023-06-22T12:34:20;13.80;;;6.88;;
75926;SDS011;64605;48.296;16.416;2023-06-22T12:36:46;18.35;;;7.25;;
75926;SDS011;64605;48.296;16.416;2023-06-22T12:39:13;17.48;;;6.15;;
75926;SDS011;64605;48.296;16.416;2023-06-22T12:41:39;17.02;;;6.30;;
75926;SDS011;64605;48.296;16.416;2023-06-22T12:44:05;16.63;;;6.65;;
75926;SDS011;64605;48.296;16.416;2023-06-22T12:46:30;13.38;;;6.35;;
75926;SDS011;64605;48.296;16.416;2023-06-22T12:49:02;16.85;;;7.65;;
75926;SDS011;64605;48.296;16.416;2023-06-22T12:51:29;13.43;;;6.35;;
75926;SDS011;64605;48.296;16.416;2023-06-22T12:53:55;11.70;;;6.00;;
75926;SDS011;64605;48.296;16.416;2023-06-22T12:56:21;14.82;;;6.63;;
75926;SDS011;64605;48.296;16.416;2023-06-22T12:58:46;13.35;;;6.18;;
75926;SDS011;64605;48.296;16.416;2023-06-22T13:01:12;9.85;;;6.30;;
75926;SDS011;64605;48.296;16.416;2023-06-22T13:03:38;12.43;;;6.40;;
75926;SDS011;64605;48.296;16.416;2023-06-22T13:06:03;12.80;;;5.68;;
75926;SDS011;64605;48.296;16.416;2023-06-22T13:08:29;13.15;;;5.90;;
75926;SDS011;64605;48.296;16.416;2023-06-22T13:10:55;13.88;;;5.63;;
75926;SDS011;64605;48.296;16.416;2023-06-22T13:13:23;12.35;;;5.20;;
75926;SDS011;64605;48.296;16.416;2023-06-22T13:15:50;15.32;;;6.20;;
75926;SDS011;64605;48.296;16.416;2023-06-22T13:18:17;10.23;;;5.10;;
75926;SDS011;64605;48.296;16.416;2023-06-22T13:20:43;10.02;;;5.72;;
75926;SDS011;64605;48.296;16.416;2023-06-22T13:23:10;12.18;;;5.88;;
75926;SDS011;64605;48.296;16.416;2023-06-22T13:25:36;9.88;;;5.47;;
75926;SDS011;64605;48.296;16.416;2023-06-22T13:28:02;11.52;;;5.05;;
75926;SDS011;64605;48.296;16.416;2023-06-22T13:30:28;15.32;;;5.07;;
75926;SDS011;64605;48.296;16.416;2023-06-22T13:32:54;14.43;;;5.65;;
75926;SDS011;64605;48.296;16.416;2023-06-22T13:35:19;10.15;;;5.25;;
75926;SDS011;64605;48.296;16.416;2023-06-22T13:37:45;9.63;;;5.30;;
75926;SDS011;64605;48.296;16.416;2023-06-22T13:40:11;16.52;;;5.60;;
75926;SDS011;64605;48.296;16.416;2023-06-22T13:42:36;14.10;;;5.97;;
75926;SDS011;64605;48.296;16.416;2023-06-22T13:45:02;9.85;;;5.05;;
75926;SDS011;64605;48.296;16.416;2023-06-22T13:47:30;12.68;;;5.35;;
75926;SDS011;64605;48.296;16.416;2023-06-22T13:49:56;14.85;;;5.65;;
75926;SDS011;64605;48.296;16.416;2023-06-22T13:52:22;13.40;;;5.30;;
75926;SDS011;64605;48.296;16.416;2023-06-22T13:54:48;16.73;;;5.55;;
75926;SDS011;64605;48.296;16.416;2023-06-22T13:57:14;11.23;;;4.97;;
75926;SDS011;64605;48.296;16.416;2023-06-22T13:59:40;13.32;;;5.38;;
75926;SDS011;64605;48.296;16.416;2023-06-22T14:02:05;16.55;;;5.80;;
75926;SDS011;64605;48.296;16.416;2023-06-22T14:04:31;14.75;;;5.15;;
75926;SDS011;64605;48.296;16.416;2023-06-22T14:06:57;12.07;;;4.88;;
75926;SDS011;64605;48.296;16.416;2023-06-22T14:09:23;9.65;;;5.03;;
75926;SDS011;64605;48.296;16.416;2023-06-22T14:11:49;11.23;;;5.90;;
75926;SDS011;64605;48.296;16.416;2023-06-22T14:14:15;14.88;;;5.53;;
75926;SDS011;64605;48.296;16.416;2023-06-22T14:16:40;17.23;;;6.15;;
75926;SDS011;64605;48.296;16.416;2023-06-22T14:19:06;14.50;;;5.50;;
75926;SDS011;64605;48.296;16.416;2023-06-22T14:21:31;9.00;;;5.07;;
75926;SDS011;64605;48.296;16.416;2023-06-22T14:23:57;12.05;;;5.03;;
75926;SDS011;64605;48.296;16.416;2023-06-22T14:26:23;10.82;;;5.15;;